Portada
METAR-TAF:

METAR-TAF

Aeroports :

Lawrence Municipal Airport

Lawrence, Kansas, Estats Units d'Amèrica

latitud: 39-00-30N, longitud: 095-12-42W, altitud: 253 m

Observació

L'informe es va fer fa 22 minuts, a les 14:52 UTC
Vent 12 kt del Sud/Sud-Oest
Temperatura -1°C
Humitat 50%
Pressió 1018 hPa
Visibilitat: 16.1 km
Cel clar

METAR: KLWC 131452Z AUTO 20012KT 10SM CLR M01/M10 A3005 RMK AO2 SLP185 T10061100 56004

Hora: 09:14 (15:14 UTC)


TAF: manca

Observacions i pronòstics meteorològics de més de 4000 aeroports (METAR i TAF).

Les estacions disponibles són els punts grocs i vermells al mapa.

Posi el ratolí al punt desitjat per veure el nom de l'estació.

Feu clic per veure les observacions i els pronòstics meteorològics.

Per canviar el mapa: feu clic els botons verds amb una creu de color negre per apropar; al botó verd amb un guió per allunyar la imatge; o en les fletxes verdes per a mapes adjacents.


METAR-TAF: